sensor_id;sensor_type;location;lat;lon;timestamp;P1;durP1;ratioP1;P2;durP2;ratioP2
59828;SDS011;45708;51.848;107.620;2023-10-19T00:03:44;0.77;;;0.73;;
59828;SDS011;45708;51.848;107.620;2023-10-19T00:08:44;0.60;;;0.60;;
59828;SDS011;45708;51.848;107.620;2023-10-19T00:13:45;1.02;;;1.02;;
59828;SDS011;45708;51.848;107.620;2023-10-19T00:18:46;1.85;;;1.75;;
59828;SDS011;45708;51.848;107.620;2023-10-19T00:23:47;0.52;;;0.52;;
59828;SDS011;45708;51.848;107.620;2023-10-19T00:28:50;1.08;;;1.08;;
59828;SDS011;45708;51.848;107.620;2023-10-19T00:33:51;13.57;;;2.97;;
59828;SDS011;45708;51.848;107.620;2023-10-19T00:38:52;2.40;;;2.20;;
59828;SDS011;45708;51.848;107.620;2023-10-19T00:43:53;1.38;;;1.17;;
59828;SDS011;45708;51.848;107.620;2023-10-19T00:48:55;8.52;;;3.47;;
59828;SDS011;45708;51.848;107.620;2023-10-19T00:53:58;1.95;;;1.85;;
59828;SDS011;45708;51.848;107.620;2023-10-19T00:59:04;1.27;;;0.52;;
59828;SDS011;45708;51.848;107.620;2023-10-19T01:04:05;0.55;;;0.55;;
59828;SDS011;45708;51.848;107.620;2023-10-19T01:09:06;4.25;;;0.77;;
59828;SDS011;45708;51.848;107.620;2023-10-19T01:14:19;0.85;;;0.85;;
59828;SDS011;45708;51.848;107.620;2023-10-19T01:19:23;0.75;;;0.38;;
59828;SDS011;45708;51.848;107.620;2023-10-19T01:24:24;0.30;;;0.30;;
59828;SDS011;45708;51.848;107.620;2023-10-19T01:29:24;1.45;;;0.47;;
59828;SDS011;45708;51.848;107.620;2023-10-19T01:34:34;0.85;;;0.50;;
59828;SDS011;45708;51.848;107.620;2023-10-19T01:39:35;2.13;;;2.03;;
59828;SDS011;45708;51.848;107.620;2023-10-19T01:44:36;1.38;;;0.77;;
59828;SDS011;45708;51.848;107.620;2023-10-19T01:49:37;2.97;;;1.65;;
59828;SDS011;45708;51.848;107.620;2023-10-19T01:54:38;1.35;;;1.27;;
59828;SDS011;45708;51.848;107.620;2023-10-19T01:59:38;1.13;;;0.98;;
59828;SDS011;45708;51.848;107.620;2023-10-19T02:04:39;0.00;;;0.00;;
59828;SDS011;45708;51.848;107.620;2023-10-19T02:09:40;0.43;;;0.43;;
59828;SDS011;45708;51.848;107.620;2023-10-19T02:14:41;0.28;;;0.20;;
59828;SDS011;45708;51.848;107.620;2023-10-19T02:19:41;4.28;;;0.52;;
59828;SDS011;45708;51.848;107.620;2023-10-19T02:24:42;0.75;;;0.68;;
59828;SDS011;45708;51.848;107.620;2023-10-19T02:29:43;0.38;;;0.38;;
59828;SDS011;45708;51.848;107.620;2023-10-19T02:34:44;0.47;;;0.47;;
59828;SDS011;45708;51.848;107.620;2023-10-19T02:39:44;1.88;;;1.05;;
59828;SDS011;45708;51.848;107.620;2023-10-19T02:44:45;0.77;;;0.77;;
59828;SDS011;45708;51.848;107.620;2023-10-19T02:49:46;0.00;;;0.00;;
59828;SDS011;45708;51.848;107.620;2023-10-19T02:54:47;0.88;;;0.28;;
59828;SDS011;45708;51.848;107.620;2023-10-19T02:59:48;0.47;;;0.43;;
59828;SDS011;45708;51.848;107.620;2023-10-19T03:04:48;0.80;;;0.47;;
59828;SDS011;45708;51.848;107.620;2023-10-19T03:09:49;1.65;;;0.52;;
59828;SDS011;45708;51.848;107.620;2023-10-19T03:14:50;0.20;;;0.20;;
59828;SDS011;45708;51.848;107.620;2023-10-19T03:19:51;0.10;;;0.10;;
59828;SDS011;45708;51.848;107.620;2023-10-19T03:24:51;0.38;;;0.30;;
59828;SDS011;45708;51.848;107.620;2023-10-19T03:29:52;0.00;;;0.00;;
59828;SDS011;45708;51.848;107.620;2023-10-19T03:34:54;0.03;;;0.03;;
59828;SDS011;45708;51.848;107.620;2023-10-19T03:39:55;1.40;;;0.82;;
59828;SDS011;45708;51.848;107.620;2023-10-19T03:44:56;0.52;;;0.52;;
59828;SDS011;45708;51.848;107.620;2023-10-19T03:49:57;0.05;;;0.05;;
59828;SDS011;45708;51.848;107.620;2023-10-19T03:55:00;0.05;;;0.05;;
59828;SDS011;45708;51.848;107.620;2023-10-19T04:00:01;0.17;;;0.17;;
59828;SDS011;45708;51.848;107.620;2023-10-19T04:05:02;0.52;;;0.52;;
59828;SDS011;45708;51.848;107.620;2023-10-19T04:10:03;0.10;;;0.10;;
59828;SDS011;45708;51.848;107.620;2023-10-19T04:15:05;0.35;;;0.35;;
59828;SDS011;45708;51.848;107.620;2023-10-19T04:20:07;0.00;;;0.00;;
59828;SDS011;45708;51.848;107.620;2023-10-19T04:25:09;0.13;;;0.13;;
59828;SDS011;45708;51.848;107.620;2023-10-19T04:30:10;0.00;;;0.00;;
59828;SDS011;45708;51.848;107.620;2023-10-19T04:35:12;0.20;;;0.20;;
59828;SDS011;45708;51.848;107.620;2023-10-19T04:40:14;0.38;;;0.30;;
59828;SDS011;45708;51.848;107.620;2023-10-19T04:45:14;0.00;;;0.00;;
59828;SDS011;45708;51.848;107.620;2023-10-19T04:50:15;0.00;;;0.00;;
59828;SDS011;45708;51.848;107.620;2023-10-19T04:55:16;0.10;;;0.10;;
59828;SDS011;45708;51.848;107.620;2023-10-19T05:00:17;0.05;;;0.05;;
59828;SDS011;45708;51.848;107.620;2023-10-19T05:05:18;0.28;;;0.28;;
59828;SDS011;45708;51.848;107.620;2023-10-19T05:10:19;0.52;;;0.20;;
59828;SDS011;45708;51.848;107.620;2023-10-19T05:15:20;0.15;;;0.15;;
59828;SDS011;45708;51.848;107.620;2023-10-19T05:20:20;0.47;;;0.47;;
59828;SDS011;45708;51.848;107.620;2023-10-19T05:25:38;0.28;;;0.17;;
59828;SDS011;45708;51.848;107.620;2023-10-19T05:35:50;0.15;;;0.15;;
59828;SDS011;45708;51.848;107.620;2023-10-19T05:40:51;0.40;;;0.40;;
59828;SDS011;45708;51.848;107.620;2023-10-19T05:45:52;0.22;;;0.22;;
59828;SDS011;45708;51.848;107.620;2023-10-19T05:50:53;0.30;;;0.30;;
59828;SDS011;45708;51.848;107.620;2023-10-19T05:55:54;0.22;;;0.22;;
59828;SDS011;45708;51.848;107.620;2023-10-19T06:00:57;0.10;;;0.10;;
59828;SDS011;45708;51.848;107.620;2023-10-19T06:06:01;0.38;;;0.38;;
59828;SDS011;45708;51.848;107.620;2023-10-19T06:38:31;0.38;;;0.20;;
59828;SDS011;45708;51.848;107.620;2023-10-19T06:44:09;0.20;;;0.20;;
59828;SDS011;45708;51.848;107.620;2023-10-19T06:49:10;0.20;;;0.20;;
59828;SDS011;45708;51.848;107.620;2023-10-19T06:59:49;0.40;;;0.40;;
59828;SDS011;45708;51.848;107.620;2023-10-19T07:16:25;0.30;;;0.30;;
59828;SDS011;45708;51.848;107.620;2023-10-19T07:21:26;0.50;;;0.50;;
59828;SDS011;45708;51.848;107.620;2023-10-19T07:26:27;0.13;;;0.13;;
59828;SDS011;45708;51.848;107.620;2023-10-19T07:31:28;0.75;;;0.73;;
59828;SDS011;45708;51.848;107.620;2023-10-19T07:36:28;0.70;;;0.45;;
59828;SDS011;45708;51.848;107.620;2023-10-19T07:41:29;0.28;;;0.25;;
59828;SDS011;45708;51.848;107.620;2023-10-19T07:46:33;3.28;;;0.70;;
59828;SDS011;45708;51.848;107.620;2023-10-19T07:51:39;0.00;;;0.00;;
59828;SDS011;45708;51.848;107.620;2023-10-19T07:56:41;4.53;;;0.82;;
59828;SDS011;45708;51.848;107.620;2023-10-19T08:01:42;1.10;;;0.98;;
59828;SDS011;45708;51.848;107.620;2023-10-19T08:06:43;3.33;;;0.50;;
59828;SDS011;45708;51.848;107.620;2023-10-19T08:11:44;0.10;;;0.10;;
59828;SDS011;45708;51.848;107.620;2023-10-19T08:16:44;0.57;;;0.57;;
59828;SDS011;45708;51.848;107.620;2023-10-19T08:21:45;0.38;;;0.38;;
59828;SDS011;45708;51.848;107.620;2023-10-19T08:26:47;1.15;;;0.77;;
59828;SDS011;45708;51.848;107.620;2023-10-19T08:31:48;0.20;;;0.13;;
59828;SDS011;45708;51.848;107.620;2023-10-19T08:36:49;1.75;;;0.85;;
59828;SDS011;45708;51.848;107.620;2023-10-19T08:41:50;4.65;;;1.40;;
59828;SDS011;45708;51.848;107.620;2023-10-19T08:46:51;1.05;;;0.85;;
59828;SDS011;45708;51.848;107.620;2023-10-19T08:51:52;0.30;;;0.30;;
59828;SDS011;45708;51.848;107.620;2023-10-19T08:56:54;0.35;;;0.32;;
59828;SDS011;45708;51.848;107.620;2023-10-19T09:02:02;1.45;;;0.95;;
59828;SDS011;45708;51.848;107.620;2023-10-19T09:07:03;1.15;;;1.08;;
59828;SDS011;45708;51.848;107.620;2023-10-19T09:12:04;1.02;;;1.00;;
59828;SDS011;45708;51.848;107.620;2023-10-19T09:17:07;0.95;;;0.88;;
59828;SDS011;45708;51.848;107.620;2023-10-19T09:22:08;0.40;;;0.40;;
59828;SDS011;45708;51.848;107.620;2023-10-19T09:27:10;1.35;;;1.08;;
59828;SDS011;45708;51.848;107.620;2023-10-19T09:32:11;3.45;;;2.25;;
59828;SDS011;45708;51.848;107.620;2023-10-19T09:37:12;5.03;;;4.60;;
59828;SDS011;45708;51.848;107.620;2023-10-19T09:42:16;2.60;;;2.45;;
59828;SDS011;45708;51.848;107.620;2023-10-19T09:47:20;1.38;;;1.38;;
59828;SDS011;45708;51.848;107.620;2023-10-19T09:52:43;2.85;;;2.47;;
59828;SDS011;45708;51.848;107.620;2023-10-19T09:57:48;10.60;;;2.33;;
59828;SDS011;45708;51.848;107.620;2023-10-19T10:08:45;9.80;;;7.35;;
59828;SDS011;45708;51.848;107.620;2023-10-19T10:13:47;5.53;;;5.15;;
59828;SDS011;45708;51.848;107.620;2023-10-19T10:18:49;2.97;;;2.78;;
59828;SDS011;45708;51.848;107.620;2023-10-19T10:23:58;2.20;;;2.10;;
59828;SDS011;45708;51.848;107.620;2023-10-19T10:29:10;2.42;;;2.33;;
59828;SDS011;45708;51.848;107.620;2023-10-19T10:39:58;8.32;;;6.40;;
59828;SDS011;45708;51.848;107.620;2023-10-19T10:44:59;11.45;;;9.00;;
59828;SDS011;45708;51.848;107.620;2023-10-19T10:50:00;9.35;;;8.65;;
59828;SDS011;45708;51.848;107.620;2023-10-19T10:55:08;12.15;;;9.32;;
59828;SDS011;45708;51.848;107.620;2023-10-19T11:00:16;5.43;;;3.92;;
59828;SDS011;45708;51.848;107.620;2023-10-19T11:05:20;9.23;;;8.38;;
59828;SDS011;45708;51.848;107.620;2023-10-19T11:10:28;16.75;;;12.27;;
59828;SDS011;45708;51.848;107.620;2023-10-19T11:15:30;6.60;;;6.00;;
59828;SDS011;45708;51.848;107.620;2023-10-19T11:20:31;22.67;;;6.68;;
59828;SDS011;45708;51.848;107.620;2023-10-19T11:25:31;7.35;;;5.95;;
59828;SDS011;45708;51.848;107.620;2023-10-19T11:30:32;6.30;;;3.88;;
59828;SDS011;45708;51.848;107.620;2023-10-19T11:35:33;5.03;;;4.40;;
59828;SDS011;45708;51.848;107.620;2023-10-19T11:40:34;10.15;;;6.60;;
59828;SDS011;45708;51.848;107.620;2023-10-19T11:45:35;3.40;;;2.92;;
59828;SDS011;45708;51.848;107.620;2023-10-19T11:50:36;4.75;;;4.35;;
59828;SDS011;45708;51.848;107.620;2023-10-19T11:55:37;12.75;;;3.35;;
59828;SDS011;45708;51.848;107.620;2023-10-19T12:00:38;6.57;;;6.00;;
59828;SDS011;45708;51.848;107.620;2023-10-19T12:05:40;13.77;;;8.52;;
59828;SDS011;45708;51.848;107.620;2023-10-19T12:10:41;14.27;;;8.77;;
59828;SDS011;45708;51.848;107.620;2023-10-19T12:15:42;16.15;;;7.40;;
59828;SDS011;45708;51.848;107.620;2023-10-19T12:20:43;5.85;;;4.68;;
59828;SDS011;45708;51.848;107.620;2023-10-19T12:25:44;4.35;;;3.53;;
59828;SDS011;45708;51.848;107.620;2023-10-19T12:30:45;10.48;;;8.82;;
59828;SDS011;45708;51.848;107.620;2023-10-19T12:35:45;6.57;;;6.28;;
59828;SDS011;45708;51.848;107.620;2023-10-19T12:40:47;14.75;;;9.55;;
59828;SDS011;45708;51.848;107.620;2023-10-19T12:45:48;14.27;;;12.63;;
59828;SDS011;45708;51.848;107.620;2023-10-19T12:50:49;11.90;;;7.97;;
59828;SDS011;45708;51.848;107.620;2023-10-19T12:55:50;9.65;;;8.77;;
59828;SDS011;45708;51.848;107.620;2023-10-19T13:00:51;11.38;;;8.57;;
59828;SDS011;45708;51.848;107.620;2023-10-19T13:05:52;11.85;;;10.73;;
59828;SDS011;45708;51.848;107.620;2023-10-19T13:10:53;16.23;;;10.50;;
59828;SDS011;45708;51.848;107.620;2023-10-19T13:15:54;11.07;;;9.77;;
59828;SDS011;45708;51.848;107.620;2023-10-19T13:20:55;7.25;;;4.90;;
59828;SDS011;45708;51.848;107.620;2023-10-19T13:25:56;8.73;;;6.93;;
59828;SDS011;45708;51.848;107.620;2023-10-19T13:30:56;9.63;;;8.23;;
59828;SDS011;45708;51.848;107.620;2023-10-19T13:35:57;9.30;;;6.80;;
59828;SDS011;45708;51.848;107.620;2023-10-19T13:40:58;14.43;;;6.88;;
59828;SDS011;45708;51.848;107.620;2023-10-19T13:45:59;6.72;;;5.70;;
59828;SDS011;45708;51.848;107.620;2023-10-19T13:51:00;8.43;;;4.38;;
59828;SDS011;45708;51.848;107.620;2023-10-19T13:56:00;10.70;;;3.83;;
59828;SDS011;45708;51.848;107.620;2023-10-19T14:01:01;6.55;;;6.00;;
59828;SDS011;45708;51.848;107.620;2023-10-19T14:06:03;4.22;;;3.95;;
59828;SDS011;45708;51.848;107.620;2023-10-19T14:11:04;6.05;;;5.53;;
59828;SDS011;45708;51.848;107.620;2023-10-19T14:16:05;10.50;;;4.53;;
59828;SDS011;45708;51.848;107.620;2023-10-19T14:21:11;10.13;;;5.40;;
59828;SDS011;45708;51.848;107.620;2023-10-19T14:26:16;13.20;;;6.97;;
59828;SDS011;45708;51.848;107.620;2023-10-19T14:31:17;9.68;;;6.65;;
59828;SDS011;45708;51.848;107.620;2023-10-19T14:36:18;6.20;;;5.75;;
59828;SDS011;45708;51.848;107.620;2023-10-19T14:41:18;13.25;;;6.40;;
59828;SDS011;45708;51.848;107.620;2023-10-19T14:46:19;6.20;;;5.65;;
59828;SDS011;45708;51.848;107.620;2023-10-19T14:51:20;6.95;;;6.53;;
59828;SDS011;45708;51.848;107.620;2023-10-19T14:56:21;15.25;;;4.55;;
59828;SDS011;45708;51.848;107.620;2023-10-19T15:01:23;4.88;;;3.83;;
59828;SDS011;45708;51.848;107.620;2023-10-19T15:06:24;6.03;;;5.60;;
59828;SDS011;45708;51.848;107.620;2023-10-19T15:11:25;3.78;;;3.58;;
59828;SDS011;45708;51.848;107.620;2023-10-19T15:16:25;6.32;;;5.18;;
59828;SDS011;45708;51.848;107.620;2023-10-19T15:21:26;4.78;;;4.43;;
59828;SDS011;45708;51.848;107.620;2023-10-19T15:26:27;3.55;;;3.25;;
59828;SDS011;45708;51.848;107.620;2023-10-19T15:31:28;3.88;;;3.60;;
59828;SDS011;45708;51.848;107.620;2023-10-19T15:36:28;3.03;;;2.83;;
59828;SDS011;45708;51.848;107.620;2023-10-19T15:41:29;5.90;;;5.30;;
59828;SDS011;45708;51.848;107.620;2023-10-19T15:46:30;3.63;;;2.13;;
59828;SDS011;45708;51.848;107.620;2023-10-19T15:51:31;12.73;;;5.45;;
59828;SDS011;45708;51.848;107.620;2023-10-19T15:56:32;5.40;;;5.00;;
59828;SDS011;45708;51.848;107.620;2023-10-19T16:01:33;7.22;;;6.65;;
59828;SDS011;45708;51.848;107.620;2023-10-19T16:06:33;3.63;;;3.42;;
59828;SDS011;45708;51.848;107.620;2023-10-19T16:11:34;4.40;;;3.78;;
59828;SDS011;45708;51.848;107.620;2023-10-19T16:16:35;3.08;;;2.70;;
59828;SDS011;45708;51.848;107.620;2023-10-19T16:21:36;2.72;;;2.55;;
59828;SDS011;45708;51.848;107.620;2023-10-19T16:26:37;6.95;;;5.18;;
59828;SDS011;45708;51.848;107.620;2023-10-19T16:31:39;3.03;;;2.88;;
59828;SDS011;45708;51.848;107.620;2023-10-19T16:36:40;8.48;;;5.60;;
59828;SDS011;45708;51.848;107.620;2023-10-19T16:41:42;3.55;;;3.13;;
59828;SDS011;45708;51.848;107.620;2023-10-19T16:46:43;5.40;;;3.25;;
59828;SDS011;45708;51.848;107.620;2023-10-19T16:51:44;10.82;;;5.03;;
59828;SDS011;45708;51.848;107.620;2023-10-19T16:56:45;6.35;;;1.63;;
59828;SDS011;45708;51.848;107.620;2023-10-19T17:01:46;5.07;;;3.92;;
59828;SDS011;45708;51.848;107.620;2023-10-19T17:06:47;2.63;;;2.45;;
59828;SDS011;45708;51.848;107.620;2023-10-19T17:11:49;2.72;;;2.53;;
59828;SDS011;45708;51.848;107.620;2023-10-19T17:16:51;3.72;;;3.40;;
59828;SDS011;45708;51.848;107.620;2023-10-19T17:21:52;6.55;;;5.28;;
59828;SDS011;45708;51.848;107.620;2023-10-19T17:26:53;6.25;;;5.70;;
59828;SDS011;45708;51.848;107.620;2023-10-19T17:31:54;6.90;;;6.18;;
59828;SDS011;45708;51.848;107.620;2023-10-19T17:36:55;9.35;;;8.50;;
59828;SDS011;45708;51.848;107.620;2023-10-19T17:41:55;6.15;;;5.70;;
59828;SDS011;45708;51.848;107.620;2023-10-19T17:46:56;6.78;;;6.32;;
59828;SDS011;45708;51.848;107.620;2023-10-19T17:51:57;7.40;;;6.65;;
59828;SDS011;45708;51.848;107.620;2023-10-19T17:56:58;17.08;;;7.30;;
59828;SDS011;45708;51.848;107.620;2023-10-19T18:01:58;13.02;;;5.85;;
59828;SDS011;45708;51.848;107.620;2023-10-19T18:07:02;3.85;;;3.55;;
59828;SDS011;45708;51.848;107.620;2023-10-19T18:12:04;5.95;;;5.53;;
59828;SDS011;45708;51.848;107.620;2023-10-19T18:17:05;2.20;;;2.13;;
59828;SDS011;45708;51.848;107.620;2023-10-19T18:22:07;1.02;;;1.02;;
59828;SDS011;45708;51.848;107.620;2023-10-19T18:27:08;2.55;;;1.60;;
59828;SDS011;45708;51.848;107.620;2023-10-19T18:32:08;2.35;;;2.15;;
59828;SDS011;45708;51.848;107.620;2023-10-19T18:37:11;1.52;;;1.42;;
59828;SDS011;45708;51.848;107.620;2023-10-19T18:42:12;5.50;;;5.07;;
59828;SDS011;45708;51.848;107.620;2023-10-19T18:47:13;3.60;;;3.30;;
59828;SDS011;45708;51.848;107.620;2023-10-19T18:52:14;2.17;;;1.90;;
59828;SDS011;45708;51.848;107.620;2023-10-19T18:57:14;3.35;;;2.05;;
59828;SDS011;45708;51.848;107.620;2023-10-19T19:02:15;11.45;;;1.85;;
59828;SDS011;45708;51.848;107.620;2023-10-19T19:07:16;4.68;;;3.53;;
59828;SDS011;45708;51.848;107.620;2023-10-19T19:12:17;1.70;;;1.60;;
59828;SDS011;45708;51.848;107.620;2023-10-19T19:17:17;2.20;;;2.08;;
59828;SDS011;45708;51.848;107.620;2023-10-19T19:22:18;4.97;;;3.25;;
59828;SDS011;45708;51.848;107.620;2023-10-19T19:27:19;3.40;;;3.22;;
59828;SDS011;45708;51.848;107.620;2023-10-19T19:32:20;7.68;;;5.65;;
59828;SDS011;45708;51.848;107.620;2023-10-19T19:37:20;0.75;;;0.75;;
59828;SDS011;45708;51.848;107.620;2023-10-19T19:42:21;2.55;;;2.38;;
59828;SDS011;45708;51.848;107.620;2023-10-19T19:47:23;8.80;;;4.68;;
59828;SDS011;45708;51.848;107.620;2023-10-19T19:52:24;4.97;;;3.45;;
59828;SDS011;45708;51.848;107.620;2023-10-19T19:57:25;2.00;;;1.30;;
59828;SDS011;45708;51.848;107.620;2023-10-19T20:02:26;1.58;;;1.48;;
59828;SDS011;45708;51.848;107.620;2023-10-19T20:07:26;4.30;;;3.78;;
59828;SDS011;45708;51.848;107.620;2023-10-19T20:12:27;9.77;;;4.67;;
59828;SDS011;45708;51.848;107.620;2023-10-19T20:17:28;5.75;;;3.08;;
59828;SDS011;45708;51.848;107.620;2023-10-19T20:22:28;3.17;;;1.92;;
59828;SDS011;45708;51.848;107.620;2023-10-19T20:27:29;5.05;;;3.83;;
59828;SDS011;45708;51.848;107.620;2023-10-19T20:32:31;3.33;;;1.90;;
59828;SDS011;45708;51.848;107.620;2023-10-19T20:37:31;1.45;;;1.45;;
59828;SDS011;45708;51.848;107.620;2023-10-19T20:42:32;2.05;;;1.95;;
59828;SDS011;45708;51.848;107.620;2023-10-19T20:47:33;2.22;;;2.08;;
59828;SDS011;45708;51.848;107.620;2023-10-19T20:52:36;0.52;;;0.52;;
59828;SDS011;45708;51.848;107.620;2023-10-19T20:57:36;1.33;;;1.23;;
59828;SDS011;45708;51.848;107.620;2023-10-19T21:02:40;1.20;;;1.20;;
59828;SDS011;45708;51.848;107.620;2023-10-19T21:07:42;1.00;;;1.00;;
59828;SDS011;45708;51.848;107.620;2023-10-19T21:12:43;0.93;;;0.93;;
59828;SDS011;45708;51.848;107.620;2023-10-19T21:17:45;2.80;;;2.60;;
59828;SDS011;45708;51.848;107.620;2023-10-19T21:22:48;1.52;;;1.45;;
59828;SDS011;45708;51.848;107.620;2023-10-19T21:27:49;1.08;;;1.08;;
59828;SDS011;45708;51.848;107.620;2023-10-19T21:32:50;0.52;;;0.52;;
59828;SDS011;45708;51.848;107.620;2023-10-19T21:37:51;0.65;;;0.65;;
59828;SDS011;45708;51.848;107.620;2023-10-19T21:42:51;6.30;;;3.28;;
59828;SDS011;45708;51.848;107.620;2023-10-19T21:47:52;0.88;;;0.88;;
59828;SDS011;45708;51.848;107.620;2023-10-19T21:52:53;0.52;;;0.50;;
59828;SDS011;45708;51.848;107.620;2023-10-19T21:57:54;8.40;;;2.72;;
59828;SDS011;45708;51.848;107.620;2023-10-19T22:02:55;2.08;;;1.98;;
59828;SDS011;45708;51.848;107.620;2023-10-19T22:07:56;1.67;;;1.67;;
59828;SDS011;45708;51.848;107.620;2023-10-19T22:12:58;2.92;;;2.72;;
59828;SDS011;45708;51.848;107.620;2023-10-19T22:17:59;10.57;;;3.42;;
59828;SDS011;45708;51.848;107.620;2023-10-19T22:23:00;3.05;;;2.22;;
59828;SDS011;45708;51.848;107.620;2023-10-19T22:28:01;4.27;;;3.93;;
59828;SDS011;45708;51.848;107.620;2023-10-19T22:33:03;2.53;;;2.40;;
59828;SDS011;45708;51.848;107.620;2023-10-19T22:38:04;6.90;;;6.40;;
59828;SDS011;45708;51.848;107.620;2023-10-19T22:43:05;10.98;;;9.70;;
59828;SDS011;45708;51.848;107.620;2023-10-19T22:48:06;5.97;;;5.57;;
59828;SDS011;45708;51.848;107.620;2023-10-19T22:53:07;15.63;;;9.90;;
59828;SDS011;45708;51.848;107.620;2023-10-19T22:58:08;7.40;;;6.77;;
59828;SDS011;45708;51.848;107.620;2023-10-19T23:03:08;7.33;;;6.80;;
59828;SDS011;45708;51.848;107.620;2023-10-19T23:08:09;3.33;;;3.13;;
59828;SDS011;45708;51.848;107.620;2023-10-19T23:13:10;9.50;;;4.87;;
59828;SDS011;45708;51.848;107.620;2023-10-19T23:18:11;8.87;;;6.30;;
59828;SDS011;45708;51.848;107.620;2023-10-19T23:23:12;16.87;;;6.57;;
59828;SDS011;45708;51.848;107.620;2023-10-19T23:28:13;7.10;;;5.97;;
59828;SDS011;45708;51.848;107.620;2023-10-19T23:33:13;9.33;;;5.13;;
59828;SDS011;45708;51.848;107.620;2023-10-19T23:38:14;1.90;;;1.77;;
59828;SDS011;45708;51.848;107.620;2023-10-19T23:43:15;2.00;;;1.90;;
59828;SDS011;45708;51.848;107.620;2023-10-19T23:48:16;7.03;;;6.30;;
59828;SDS011;45708;51.848;107.620;2023-10-19T23:53:17;4.93;;;3.28;;
59828;SDS011;45708;51.848;107.620;2023-10-19T23:58:17;2.00;;;1.90;;
